sensor_id;sensor_type;location;lat;lon;timestamp;P1;durP1;ratioP1;P2;durP2;ratioP2
73132;SDS011;61320;52.008;4.530;2022-10-16T00:01:24;2.07;;;2.07;;
73132;SDS011;61320;52.008;4.530;2022-10-16T00:03:51;1.96;;;1.96;;
73132;SDS011;61320;52.008;4.530;2022-10-16T00:06:17;1.87;;;1.87;;
73132;SDS011;61320;52.008;4.530;2022-10-16T00:08:45;1.84;;;1.84;;
73132;SDS011;61320;52.008;4.530;2022-10-16T00:11:13;1.97;;;1.97;;
73132;SDS011;61320;52.008;4.530;2022-10-16T00:13:42;1.76;;;1.76;;
73132;SDS011;61320;52.008;4.530;2022-10-16T00:16:09;1.86;;;1.86;;
73132;SDS011;61320;52.008;4.530;2022-10-16T00:18:36;1.92;;;1.92;;
73132;SDS011;61320;52.008;4.530;2022-10-16T00:21:03;1.76;;;1.76;;
73132;SDS011;61320;52.008;4.530;2022-10-16T00:23:35;1.73;;;1.73;;
73132;SDS011;61320;52.008;4.530;2022-10-16T00:26:02;1.72;;;1.72;;
73132;SDS011;61320;52.008;4.530;2022-10-16T00:28:33;1.58;;;1.58;;
73132;SDS011;61320;52.008;4.530;2022-10-16T00:30:58;1.56;;;1.56;;
73132;SDS011;61320;52.008;4.530;2022-10-16T00:33:27;1.52;;;1.52;;
73132;SDS011;61320;52.008;4.530;2022-10-16T00:35:52;1.51;;;1.51;;
73132;SDS011;61320;52.008;4.530;2022-10-16T00:38:18;1.26;;;1.25;;
73132;SDS011;61320;52.008;4.530;2022-10-16T00:40:43;1.23;;;1.22;;
73132;SDS011;61320;52.008;4.530;2022-10-16T00:45:58;1.11;;;1.10;;
73132;SDS011;61320;52.008;4.530;2022-10-16T00:48:25;1.18;;;1.17;;
73132;SDS011;61320;52.008;4.530;2022-10-16T00:50:51;1.13;;;1.11;;
73132;SDS011;61320;52.008;4.530;2022-10-16T00:53:18;1.29;;;1.27;;
73132;SDS011;61320;52.008;4.530;2022-10-16T00:55:44;1.27;;;1.24;;
73132;SDS011;61320;52.008;4.530;2022-10-16T00:58:11;1.47;;;1.45;;
73132;SDS011;61320;52.008;4.530;2022-10-16T01:00:36;1.54;;;1.52;;
73132;SDS011;61320;52.008;4.530;2022-10-16T01:03:03;1.59;;;1.58;;
73132;SDS011;61320;52.008;4.530;2022-10-16T01:05:49;1.50;;;1.50;;
73132;SDS011;61320;52.008;4.530;2022-10-16T01:08:31;1.54;;;1.54;;
73132;SDS011;61320;52.008;4.530;2022-10-16T01:11:11;1.57;;;1.57;;
73132;SDS011;61320;52.008;4.530;2022-10-16T01:13:48;1.58;;;1.58;;
73132;SDS011;61320;52.008;4.530;2022-10-16T01:16:40;1.59;;;1.59;;
73132;SDS011;61320;52.008;4.530;2022-10-16T01:19:20;1.49;;;1.49;;
73132;SDS011;61320;52.008;4.530;2022-10-16T01:21:51;1.76;;;1.76;;
73132;SDS011;61320;52.008;4.530;2022-10-16T01:27:15;1.69;;;1.69;;
73132;SDS011;61320;52.008;4.530;2022-10-16T01:32:39;1.73;;;1.73;;
73132;SDS011;61320;52.008;4.530;2022-10-16T01:35:19;1.74;;;1.74;;
73132;SDS011;61320;52.008;4.530;2022-10-16T01:37:58;1.74;;;1.74;;
73132;SDS011;61320;52.008;4.530;2022-10-16T01:40:30;1.70;;;1.70;;
73132;SDS011;61320;52.008;4.530;2022-10-16T01:43:03;1.71;;;1.71;;
73132;SDS011;61320;52.008;4.530;2022-10-16T01:45:33;1.56;;;1.56;;
73132;SDS011;61320;52.008;4.530;2022-10-16T01:48:01;1.82;;;1.82;;
73132;SDS011;61320;52.008;4.530;2022-10-16T01:50:31;1.61;;;1.61;;
73132;SDS011;61320;52.008;4.530;2022-10-16T01:53:02;1.69;;;1.69;;
73132;SDS011;61320;52.008;4.530;2022-10-16T01:55:32;1.85;;;1.85;;
73132;SDS011;61320;52.008;4.530;2022-10-16T01:58:02;1.93;;;1.93;;
73132;SDS011;61320;52.008;4.530;2022-10-16T02:00:33;1.79;;;1.79;;
73132;SDS011;61320;52.008;4.530;2022-10-16T02:03:02;1.77;;;1.77;;
73132;SDS011;61320;52.008;4.530;2022-10-16T02:05:47;1.90;;;1.90;;
73132;SDS011;61320;52.008;4.530;2022-10-16T02:08:17;2.02;;;2.02;;
73132;SDS011;61320;52.008;4.530;2022-10-16T02:10:43;2.21;;;2.21;;
73132;SDS011;61320;52.008;4.530;2022-10-16T02:13:10;2.10;;;2.10;;
73132;SDS011;61320;52.008;4.530;2022-10-16T02:15:41;2.34;;;2.34;;
73132;SDS011;61320;52.008;4.530;2022-10-16T02:18:07;2.42;;;2.42;;
73132;SDS011;61320;52.008;4.530;2022-10-16T02:20:48;2.25;;;2.25;;
73132;SDS011;61320;52.008;4.530;2022-10-16T02:26:15;6.41;;;6.41;;
73132;SDS011;61320;52.008;4.530;2022-10-16T02:28:53;2.34;;;2.34;;
73132;SDS011;61320;52.008;4.530;2022-10-16T02:31:27;2.39;;;2.39;;
73132;SDS011;61320;52.008;4.530;2022-10-16T02:33:59;2.35;;;2.35;;
73132;SDS011;61320;52.008;4.530;2022-10-16T02:36:27;2.14;;;2.14;;
73132;SDS011;61320;52.008;4.530;2022-10-16T02:38:54;2.18;;;2.18;;
73132;SDS011;61320;52.008;4.530;2022-10-16T02:41:21;2.07;;;2.07;;
73132;SDS011;61320;52.008;4.530;2022-10-16T02:43:48;2.29;;;2.29;;
73132;SDS011;61320;52.008;4.530;2022-10-16T02:46:14;2.25;;;2.25;;
73132;SDS011;61320;52.008;4.530;2022-10-16T02:48:41;2.08;;;2.08;;
73132;SDS011;61320;52.008;4.530;2022-10-16T02:51:07;2.15;;;2.15;;
73132;SDS011;61320;52.008;4.530;2022-10-16T02:53:32;2.12;;;2.12;;
73132;SDS011;61320;52.008;4.530;2022-10-16T02:55:58;2.08;;;2.08;;
73132;SDS011;61320;52.008;4.530;2022-10-16T02:58:23;2.14;;;2.14;;
73132;SDS011;61320;52.008;4.530;2022-10-16T03:00:49;2.14;;;2.14;;
73132;SDS011;61320;52.008;4.530;2022-10-16T03:03:14;2.30;;;2.30;;
73132;SDS011;61320;52.008;4.530;2022-10-16T03:05:40;2.07;;;2.07;;
73132;SDS011;61320;52.008;4.530;2022-10-16T03:08:05;2.08;;;2.08;;
73132;SDS011;61320;52.008;4.530;2022-10-16T03:10:31;1.94;;;1.94;;
73132;SDS011;61320;52.008;4.530;2022-10-16T03:12:56;1.92;;;1.92;;
73132;SDS011;61320;52.008;4.530;2022-10-16T03:15:22;1.86;;;1.86;;
73132;SDS011;61320;52.008;4.530;2022-10-16T03:17:47;2.12;;;2.10;;
73132;SDS011;61320;52.008;4.530;2022-10-16T03:20:13;1.93;;;1.90;;
73132;SDS011;61320;52.008;4.530;2022-10-16T03:22:38;2.07;;;2.05;;
73132;SDS011;61320;52.008;4.530;2022-10-16T03:25:04;2.21;;;2.20;;
73132;SDS011;61320;52.008;4.530;2022-10-16T03:27:30;2.32;;;2.30;;
73132;SDS011;61320;52.008;4.530;2022-10-16T03:29:55;1.95;;;1.95;;
73132;SDS011;61320;52.008;4.530;2022-10-16T03:32:24;2.13;;;2.13;;
73132;SDS011;61320;52.008;4.530;2022-10-16T03:34:50;2.15;;;2.15;;
73132;SDS011;61320;52.008;4.530;2022-10-16T03:37:16;2.16;;;2.16;;
73132;SDS011;61320;52.008;4.530;2022-10-16T03:39:45;2.07;;;2.07;;
73132;SDS011;61320;52.008;4.530;2022-10-16T03:42:11;1.98;;;1.98;;
73132;SDS011;61320;52.008;4.530;2022-10-16T03:44:37;2.01;;;2.01;;
73132;SDS011;61320;52.008;4.530;2022-10-16T03:47:03;2.12;;;2.12;;
73132;SDS011;61320;52.008;4.530;2022-10-16T03:49:28;2.01;;;2.01;;
73132;SDS011;61320;52.008;4.530;2022-10-16T03:51:54;1.97;;;1.97;;
73132;SDS011;61320;52.008;4.530;2022-10-16T03:54:20;1.98;;;1.98;;
73132;SDS011;61320;52.008;4.530;2022-10-16T03:56:47;1.82;;;1.82;;
73132;SDS011;61320;52.008;4.530;2022-10-16T03:59:13;1.93;;;1.93;;
73132;SDS011;61320;52.008;4.530;2022-10-16T04:01:38;1.90;;;1.90;;
73132;SDS011;61320;52.008;4.530;2022-10-16T04:04:04;1.98;;;1.98;;
73132;SDS011;61320;52.008;4.530;2022-10-16T04:06:29;2.09;;;2.09;;
73132;SDS011;61320;52.008;4.530;2022-10-16T04:08:54;2.08;;;2.06;;
73132;SDS011;61320;52.008;4.530;2022-10-16T04:11:21;2.09;;;2.08;;
73132;SDS011;61320;52.008;4.530;2022-10-16T04:13:46;1.91;;;1.91;;
73132;SDS011;61320;52.008;4.530;2022-10-16T04:16:12;2.09;;;2.08;;
73132;SDS011;61320;52.008;4.530;2022-10-16T04:18:38;2.18;;;2.17;;
73132;SDS011;61320;52.008;4.530;2022-10-16T04:21:04;2.44;;;2.44;;
73132;SDS011;61320;52.008;4.530;2022-10-16T04:23:30;2.30;;;2.28;;
73132;SDS011;61320;52.008;4.530;2022-10-16T04:25:56;2.44;;;2.42;;
73132;SDS011;61320;52.008;4.530;2022-10-16T04:28:22;2.20;;;2.20;;
73132;SDS011;61320;52.008;4.530;2022-10-16T04:30:47;2.06;;;2.06;;
73132;SDS011;61320;52.008;4.530;2022-10-16T04:33:12;2.00;;;2.00;;
73132;SDS011;61320;52.008;4.530;2022-10-16T04:35:38;1.97;;;1.97;;
73132;SDS011;61320;52.008;4.530;2022-10-16T04:38:04;2.23;;;2.23;;
73132;SDS011;61320;52.008;4.530;2022-10-16T04:40:29;2.18;;;2.18;;
73132;SDS011;61320;52.008;4.530;2022-10-16T04:42:58;2.19;;;2.18;;
73132;SDS011;61320;52.008;4.530;2022-10-16T04:45:24;2.06;;;2.06;;
73132;SDS011;61320;52.008;4.530;2022-10-16T04:47:50;2.14;;;2.14;;
73132;SDS011;61320;52.008;4.530;2022-10-16T04:50:15;2.33;;;2.33;;
73132;SDS011;61320;52.008;4.530;2022-10-16T04:52:41;2.10;;;2.09;;
73132;SDS011;61320;52.008;4.530;2022-10-16T04:55:06;2.19;;;2.19;;
73132;SDS011;61320;52.008;4.530;2022-10-16T04:57:32;2.01;;;2.01;;
73132;SDS011;61320;52.008;4.530;2022-10-16T04:59:58;2.27;;;2.25;;
73132;SDS011;61320;52.008;4.530;2022-10-16T05:02:24;2.29;;;2.28;;
73132;SDS011;61320;52.008;4.530;2022-10-16T05:04:50;2.35;;;2.35;;
73132;SDS011;61320;52.008;4.530;2022-10-16T05:07:16;2.65;;;2.65;;
73132;SDS011;61320;52.008;4.530;2022-10-16T05:09:41;2.51;;;2.51;;
73132;SDS011;61320;52.008;4.530;2022-10-16T05:12:07;2.71;;;2.71;;
73132;SDS011;61320;52.008;4.530;2022-10-16T05:14:32;2.39;;;2.39;;
73132;SDS011;61320;52.008;4.530;2022-10-16T05:16:59;2.23;;;2.23;;
73132;SDS011;61320;52.008;4.530;2022-10-16T05:19:24;2.50;;;2.50;;
73132;SDS011;61320;52.008;4.530;2022-10-16T05:21:50;2.37;;;2.37;;
73132;SDS011;61320;52.008;4.530;2022-10-16T05:24:15;2.30;;;2.30;;
73132;SDS011;61320;52.008;4.530;2022-10-16T05:26:41;1.98;;;1.98;;
73132;SDS011;61320;52.008;4.530;2022-10-16T05:29:07;2.19;;;2.19;;
73132;SDS011;61320;52.008;4.530;2022-10-16T05:31:32;2.06;;;2.06;;
73132;SDS011;61320;52.008;4.530;2022-10-16T05:34:01;1.94;;;1.94;;
73132;SDS011;61320;52.008;4.530;2022-10-16T05:36:27;1.96;;;1.96;;
73132;SDS011;61320;52.008;4.530;2022-10-16T05:38:53;2.05;;;2.05;;
73132;SDS011;61320;52.008;4.530;2022-10-16T05:41:19;2.24;;;2.24;;
73132;SDS011;61320;52.008;4.530;2022-10-16T05:43:47;4.31;;;4.28;;
73132;SDS011;61320;52.008;4.530;2022-10-16T05:46:13;6.64;;;6.48;;
73132;SDS011;61320;52.008;4.530;2022-10-16T05:48:40;3.07;;;3.04;;
73132;SDS011;61320;52.008;4.530;2022-10-16T05:51:06;3.36;;;3.35;;
73132;SDS011;61320;52.008;4.530;2022-10-16T05:53:34;3.09;;;3.08;;
73132;SDS011;61320;52.008;4.530;2022-10-16T05:56:01;2.81;;;2.81;;
73132;SDS011;61320;52.008;4.530;2022-10-16T05:58:29;2.47;;;2.46;;
73132;SDS011;61320;52.008;4.530;2022-10-16T06:00:57;2.15;;;2.15;;
73132;SDS011;61320;52.008;4.530;2022-10-16T06:03:24;2.11;;;2.11;;
73132;SDS011;61320;52.008;4.530;2022-10-16T06:05:50;2.06;;;2.06;;
73132;SDS011;61320;52.008;4.530;2022-10-16T06:08:16;1.97;;;1.97;;
73132;SDS011;61320;52.008;4.530;2022-10-16T06:10:43;2.05;;;2.05;;
73132;SDS011;61320;52.008;4.530;2022-10-16T06:13:09;1.92;;;1.92;;
73132;SDS011;61320;52.008;4.530;2022-10-16T06:15:35;2.10;;;2.07;;
73132;SDS011;61320;52.008;4.530;2022-10-16T06:18:01;1.93;;;1.89;;
73132;SDS011;61320;52.008;4.530;2022-10-16T06:20:26;2.00;;;1.97;;
73132;SDS011;61320;52.008;4.530;2022-10-16T06:22:51;1.98;;;1.94;;
73132;SDS011;61320;52.008;4.530;2022-10-16T06:25:17;2.18;;;2.13;;
73132;SDS011;61320;52.008;4.530;2022-10-16T06:27:43;2.05;;;1.95;;
73132;SDS011;61320;52.008;4.530;2022-10-16T06:30:08;1.79;;;1.73;;
73132;SDS011;61320;52.008;4.530;2022-10-16T06:32:34;2.01;;;1.93;;
73132;SDS011;61320;52.008;4.530;2022-10-16T06:34:59;2.04;;;1.92;;
73132;SDS011;61320;52.008;4.530;2022-10-16T06:37:25;2.13;;;1.97;;
73132;SDS011;61320;52.008;4.530;2022-10-16T06:39:54;2.19;;;1.97;;
73132;SDS011;61320;52.008;4.530;2022-10-16T06:42:20;2.53;;;2.21;;
73132;SDS011;61320;52.008;4.530;2022-10-16T06:44:45;2.21;;;1.90;;
73132;SDS011;61320;52.008;4.530;2022-10-16T06:47:11;2.31;;;2.01;;
73132;SDS011;61320;52.008;4.530;2022-10-16T06:49:39;2.18;;;1.88;;
73132;SDS011;61320;52.008;4.530;2022-10-16T06:52:05;2.51;;;2.13;;
73132;SDS011;61320;52.008;4.530;2022-10-16T06:54:30;2.29;;;1.96;;
73132;SDS011;61320;52.008;4.530;2022-10-16T06:56:59;2.46;;;2.14;;
73132;SDS011;61320;52.008;4.530;2022-10-16T06:59:25;2.14;;;1.90;;
73132;SDS011;61320;52.008;4.530;2022-10-16T07:01:50;2.15;;;1.94;;
73132;SDS011;61320;52.008;4.530;2022-10-16T07:04:16;2.19;;;1.97;;
73132;SDS011;61320;52.008;4.530;2022-10-16T07:06:41;2.47;;;2.21;;
73132;SDS011;61320;52.008;4.530;2022-10-16T07:09:08;2.28;;;2.04;;
73132;SDS011;61320;52.008;4.530;2022-10-16T07:11:35;2.08;;;1.85;;
73132;SDS011;61320;52.008;4.530;2022-10-16T07:14:02;2.25;;;2.02;;
73132;SDS011;61320;52.008;4.530;2022-10-16T07:16:29;2.27;;;2.04;;
73132;SDS011;61320;52.008;4.530;2022-10-16T07:18:57;2.38;;;2.17;;
73132;SDS011;61320;52.008;4.530;2022-10-16T07:21:25;2.58;;;2.37;;
73132;SDS011;61320;52.008;4.530;2022-10-16T07:24:00;2.31;;;2.23;;
73132;SDS011;61320;52.008;4.530;2022-10-16T07:26:27;2.55;;;2.37;;
73132;SDS011;61320;52.008;4.530;2022-10-16T07:28:56;2.66;;;2.44;;
73132;SDS011;61320;52.008;4.530;2022-10-16T07:31:22;2.64;;;2.44;;
73132;SDS011;61320;52.008;4.530;2022-10-16T07:33:49;2.17;;;2.11;;
73132;SDS011;61320;52.008;4.530;2022-10-16T07:36:16;2.60;;;2.46;;
73132;SDS011;61320;52.008;4.530;2022-10-16T07:38:43;2.62;;;2.45;;
73132;SDS011;61320;52.008;4.530;2022-10-16T07:41:16;2.17;;;2.09;;
73132;SDS011;61320;52.008;4.530;2022-10-16T07:43:53;2.18;;;2.18;;
73132;SDS011;61320;52.008;4.530;2022-10-16T07:46:20;2.32;;;2.30;;
73132;SDS011;61320;52.008;4.530;2022-10-16T07:48:47;2.20;;;2.18;;
73132;SDS011;61320;52.008;4.530;2022-10-16T07:51:14;2.26;;;2.19;;
73132;SDS011;61320;52.008;4.530;2022-10-16T07:53:42;2.52;;;2.38;;
73132;SDS011;61320;52.008;4.530;2022-10-16T07:56:08;2.65;;;2.46;;
73132;SDS011;61320;52.008;4.530;2022-10-16T07:58:34;2.46;;;2.28;;
73132;SDS011;61320;52.008;4.530;2022-10-16T08:01:03;2.50;;;2.30;;
73132;SDS011;61320;52.008;4.530;2022-10-16T08:03:30;2.63;;;2.36;;
73132;SDS011;61320;52.008;4.530;2022-10-16T08:05:56;2.78;;;2.44;;
73132;SDS011;61320;52.008;4.530;2022-10-16T08:08:23;2.79;;;2.47;;
73132;SDS011;61320;52.008;4.530;2022-10-16T08:10:49;2.40;;;2.19;;
73132;SDS011;61320;52.008;4.530;2022-10-16T08:13:14;2.43;;;2.19;;
73132;SDS011;61320;52.008;4.530;2022-10-16T08:15:40;2.69;;;2.33;;
73132;SDS011;61320;52.008;4.530;2022-10-16T08:18:07;2.99;;;2.48;;
73132;SDS011;61320;52.008;4.530;2022-10-16T08:20:32;3.09;;;2.54;;
73132;SDS011;61320;52.008;4.530;2022-10-16T08:22:59;3.27;;;2.61;;
73132;SDS011;61320;52.008;4.530;2022-10-16T08:25:25;3.35;;;2.66;;
73132;SDS011;61320;52.008;4.530;2022-10-16T08:27:51;3.64;;;2.90;;
73132;SDS011;61320;52.008;4.530;2022-10-16T08:30:18;3.91;;;3.10;;
73132;SDS011;61320;52.008;4.530;2022-10-16T08:32:45;3.57;;;2.76;;
73132;SDS011;61320;52.008;4.530;2022-10-16T08:35:11;3.96;;;3.09;;
73132;SDS011;61320;52.008;4.530;2022-10-16T08:37:39;4.26;;;3.27;;
73132;SDS011;61320;52.008;4.530;2022-10-16T08:40:06;4.12;;;3.10;;
73132;SDS011;61320;52.008;4.530;2022-10-16T08:48:44;3.77;;;2.88;;
73132;SDS011;61320;52.008;4.530;2022-10-16T08:51:18;3.81;;;2.99;;
73132;SDS011;61320;52.008;4.530;2022-10-16T08:54:18;3.82;;;3.02;;
73132;SDS011;61320;52.008;4.530;2022-10-16T08:56:49;3.71;;;2.90;;
73132;SDS011;61320;52.008;4.530;2022-10-16T08:59:30;3.55;;;2.73;;
73132;SDS011;61320;52.008;4.530;2022-10-16T09:01:56;4.85;;;3.62;;
73132;SDS011;61320;52.008;4.530;2022-10-16T09:12:51;4.42;;;3.21;;
73132;SDS011;61320;52.008;4.530;2022-10-16T09:15:35;4.86;;;3.57;;
73132;SDS011;61320;52.008;4.530;2022-10-16T09:21:10;5.73;;;3.97;;
73132;SDS011;61320;52.008;4.530;2022-10-16T09:23:44;5.88;;;4.05;;
73132;SDS011;61320;52.008;4.530;2022-10-16T09:26:13;4.83;;;3.44;;
73132;SDS011;61320;52.008;4.530;2022-10-16T09:28:51;4.77;;;3.42;;
73132;SDS011;61320;52.008;4.530;2022-10-16T09:31:19;4.35;;;3.13;;
73132;SDS011;61320;52.008;4.530;2022-10-16T09:33:48;4.45;;;3.23;;
73132;SDS011;61320;52.008;4.530;2022-10-16T09:36:19;5.64;;;3.91;;
73132;SDS011;61320;52.008;4.530;2022-10-16T09:38:48;5.32;;;3.56;;
73132;SDS011;61320;52.008;4.530;2022-10-16T09:41:16;5.95;;;3.91;;
73132;SDS011;61320;52.008;4.530;2022-10-16T09:46:22;6.06;;;3.95;;
73132;SDS011;61320;52.008;4.530;2022-10-16T09:48:58;6.17;;;4.05;;
73132;SDS011;61320;52.008;4.530;2022-10-16T09:51:29;7.21;;;4.70;;
73132;SDS011;61320;52.008;4.530;2022-10-16T09:56:35;6.16;;;3.96;;
73132;SDS011;61320;52.008;4.530;2022-10-16T09:59:11;6.37;;;4.14;;
73132;SDS011;61320;52.008;4.530;2022-10-16T10:04:11;5.79;;;3.75;;
73132;SDS011;61320;52.008;4.530;2022-10-16T10:09:17;6.26;;;4.04;;
73132;SDS011;61320;52.008;4.530;2022-10-16T10:11:58;6.27;;;4.11;;
73132;SDS011;61320;52.008;4.530;2022-10-16T10:14:34;5.74;;;3.86;;
73132;SDS011;61320;52.008;4.530;2022-10-16T10:17:12;5.65;;;3.78;;
73132;SDS011;61320;52.008;4.530;2022-10-16T10:22:16;5.91;;;3.98;;
73132;SDS011;61320;52.008;4.530;2022-10-16T10:24:44;5.85;;;3.96;;
73132;SDS011;61320;52.008;4.530;2022-10-16T10:27:19;5.96;;;4.08;;
73132;SDS011;61320;52.008;4.530;2022-10-16T10:38:20;5.71;;;3.84;;
73132;SDS011;61320;52.008;4.530;2022-10-16T10:49:33;6.04;;;3.91;;
73132;SDS011;61320;52.008;4.530;2022-10-16T10:52:31;6.20;;;4.08;;
73132;SDS011;61320;52.008;4.530;2022-10-16T10:58:23;6.26;;;4.03;;
73132;SDS011;61320;52.008;4.530;2022-10-16T11:07:17;6.83;;;4.38;;
73132;SDS011;61320;52.008;4.530;2022-10-16T11:09:51;5.85;;;3.81;;
73132;SDS011;61320;52.008;4.530;2022-10-16T11:12:27;6.84;;;4.41;;
73132;SDS011;61320;52.008;4.530;2022-10-16T11:15:02;6.62;;;4.25;;
73132;SDS011;61320;52.008;4.530;2022-10-16T11:17:39;6.47;;;4.13;;
73132;SDS011;61320;52.008;4.530;2022-10-16T11:20:25;6.62;;;4.21;;
73132;SDS011;61320;52.008;4.530;2022-10-16T11:22:58;6.47;;;4.14;;
73132;SDS011;61320;52.008;4.530;2022-10-16T11:25:36;5.88;;;3.71;;
73132;SDS011;61320;52.008;4.530;2022-10-16T11:30:49;6.96;;;4.38;;
73132;SDS011;61320;52.008;4.530;2022-10-16T11:33:27;6.39;;;3.97;;
73132;SDS011;61320;52.008;4.530;2022-10-16T11:36:22;6.41;;;3.96;;
73132;SDS011;61320;52.008;4.530;2022-10-16T11:41:37;6.44;;;3.98;;
73132;SDS011;61320;52.008;4.530;2022-10-16T11:49:32;6.40;;;4.00;;
73132;SDS011;61320;52.008;4.530;2022-10-16T11:55:15;6.98;;;4.38;;
73132;SDS011;61320;52.008;4.530;2022-10-16T11:57:46;7.14;;;4.42;;
73132;SDS011;61320;52.008;4.530;2022-10-16T12:00:24;7.73;;;4.78;;
73132;SDS011;61320;52.008;4.530;2022-10-16T12:03:13;6.18;;;3.83;;
73132;SDS011;61320;52.008;4.530;2022-10-16T12:05:59;6.21;;;3.86;;
73132;SDS011;61320;52.008;4.530;2022-10-16T12:08:33;7.06;;;4.35;;
73132;SDS011;61320;52.008;4.530;2022-10-16T12:11:19;6.61;;;4.12;;
73132;SDS011;61320;52.008;4.530;2022-10-16T12:14:06;6.75;;;4.14;;
73132;SDS011;61320;52.008;4.530;2022-10-16T12:16:52;7.28;;;4.37;;
73132;SDS011;61320;52.008;4.530;2022-10-16T12:19:21;7.03;;;4.22;;
73132;SDS011;61320;52.008;4.530;2022-10-16T12:21:48;7.11;;;4.25;;
73132;SDS011;61320;52.008;4.530;2022-10-16T12:27:23;7.89;;;4.76;;
73132;SDS011;61320;52.008;4.530;2022-10-16T12:29:57;6.50;;;3.94;;
73132;SDS011;61320;52.008;4.530;2022-10-16T12:32:32;7.45;;;4.50;;
73132;SDS011;61320;52.008;4.530;2022-10-16T12:35:00;7.35;;;4.39;;
73132;SDS011;61320;52.008;4.530;2022-10-16T12:37:35;8.11;;;4.85;;
73132;SDS011;61320;52.008;4.530;2022-10-16T12:40:14;7.87;;;4.71;;
73132;SDS011;61320;52.008;4.530;2022-10-16T12:42:48;8.10;;;4.86;;
73132;SDS011;61320;52.008;4.530;2022-10-16T12:47:57;6.01;;;3.68;;
73132;SDS011;61320;52.008;4.530;2022-10-16T12:50:32;6.77;;;4.14;;
73132;SDS011;61320;52.008;4.530;2022-10-16T12:53:04;6.70;;;4.13;;
73132;SDS011;61320;52.008;4.530;2022-10-16T12:55:52;8.16;;;4.95;;
73132;SDS011;61320;52.008;4.530;2022-10-16T13:01:20;7.20;;;4.41;;
73132;SDS011;61320;52.008;4.530;2022-10-16T13:20:51;6.83;;;4.21;;
73132;SDS011;61320;52.008;4.530;2022-10-16T13:28:38;8.18;;;4.90;;
73132;SDS011;61320;52.008;4.530;2022-10-16T13:31:11;7.76;;;4.68;;
73132;SDS011;61320;52.008;4.530;2022-10-16T13:33:45;7.63;;;4.61;;
73132;SDS011;61320;52.008;4.530;2022-10-16T13:36:25;7.52;;;4.55;;
73132;SDS011;61320;52.008;4.530;2022-10-16T13:42:32;6.33;;;3.84;;
73132;SDS011;61320;52.008;4.530;2022-10-16T13:44:49;6.69;;;4.09;;
73132;SDS011;61320;52.008;4.530;2022-10-16T13:47:20;6.93;;;4.27;;
73132;SDS011;61320;52.008;4.530;2022-10-16T13:50:02;7.78;;;4.91;;
73132;SDS011;61320;52.008;4.530;2022-10-16T13:52:36;6.81;;;4.35;;
73132;SDS011;61320;52.008;4.530;2022-10-16T13:55:09;7.19;;;4.57;;
73132;SDS011;61320;52.008;4.530;2022-10-16T13:57:42;7.44;;;4.81;;
73132;SDS011;61320;52.008;4.530;2022-10-16T14:03:28;5.83;;;3.89;;
73132;SDS011;61320;52.008;4.530;2022-10-16T14:05:57;6.05;;;4.00;;
73132;SDS011;61320;52.008;4.530;2022-10-16T14:08:27;6.07;;;4.01;;
73132;SDS011;61320;52.008;4.530;2022-10-16T14:10:59;5.57;;;3.67;;
73132;SDS011;61320;52.008;4.530;2022-10-16T14:13:30;5.45;;;3.61;;
73132;SDS011;61320;52.008;4.530;2022-10-16T14:16:21;5.52;;;3.68;;
73132;SDS011;61320;52.008;4.530;2022-10-16T14:18:54;5.22;;;3.41;;
73132;SDS011;61320;52.008;4.530;2022-10-16T14:21:23;5.62;;;3.68;;
73132;SDS011;61320;52.008;4.530;2022-10-16T14:23:50;5.66;;;3.71;;
73132;SDS011;61320;52.008;4.530;2022-10-16T14:26:20;6.88;;;4.47;;
73132;SDS011;61320;52.008;4.530;2022-10-16T14:28:51;6.88;;;4.56;;
73132;SDS011;61320;52.008;4.530;2022-10-16T14:31:35;6.38;;;4.13;;
73132;SDS011;61320;52.008;4.530;2022-10-16T14:34:02;5.47;;;3.56;;
73132;SDS011;61320;52.008;4.530;2022-10-16T14:36:28;5.46;;;3.57;;
73132;SDS011;61320;52.008;4.530;2022-10-16T14:38:57;6.00;;;3.90;;
73132;SDS011;61320;52.008;4.530;2022-10-16T14:41:27;5.66;;;3.67;;
73132;SDS011;61320;52.008;4.530;2022-10-16T14:44:04;5.90;;;3.79;;
73132;SDS011;61320;52.008;4.530;2022-10-16T14:46:37;6.48;;;4.20;;
73132;SDS011;61320;52.008;4.530;2022-10-16T14:51:34;5.13;;;3.49;;
73132;SDS011;61320;52.008;4.530;2022-10-16T14:53:59;4.59;;;3.08;;
73132;SDS011;61320;52.008;4.530;2022-10-16T14:56:25;5.57;;;3.62;;
73132;SDS011;61320;52.008;4.530;2022-10-16T14:58:55;5.89;;;3.76;;
73132;SDS011;61320;52.008;4.530;2022-10-16T15:01:21;6.46;;;4.10;;
73132;SDS011;61320;52.008;4.530;2022-10-16T15:03:47;6.61;;;4.22;;
73132;SDS011;61320;52.008;4.530;2022-10-16T15:06:14;6.54;;;4.29;;
73132;SDS011;61320;52.008;4.530;2022-10-16T15:08:40;6.31;;;4.08;;
73132;SDS011;61320;52.008;4.530;2022-10-16T15:11:14;6.67;;;4.36;;
73132;SDS011;61320;52.008;4.530;2022-10-16T15:13:42;6.13;;;4.02;;
73132;SDS011;61320;52.008;4.530;2022-10-16T15:16:10;5.21;;;3.39;;
73132;SDS011;61320;52.008;4.530;2022-10-16T15:18:37;5.77;;;3.82;;
73132;SDS011;61320;52.008;4.530;2022-10-16T15:21:03;5.60;;;3.72;;
73132;SDS011;61320;52.008;4.530;2022-10-16T15:23:28;5.13;;;3.44;;
73132;SDS011;61320;52.008;4.530;2022-10-16T15:25:54;5.01;;;3.45;;
73132;SDS011;61320;52.008;4.530;2022-10-16T15:28:21;4.65;;;3.32;;
73132;SDS011;61320;52.008;4.530;2022-10-16T15:30:49;4.13;;;2.97;;
73132;SDS011;61320;52.008;4.530;2022-10-16T15:33:17;4.66;;;3.28;;
73132;SDS011;61320;52.008;4.530;2022-10-16T15:35:46;4.44;;;3.01;;
73132;SDS011;61320;52.008;4.530;2022-10-16T15:38:13;5.22;;;3.58;;
73132;SDS011;61320;52.008;4.530;2022-10-16T15:40:39;5.04;;;3.53;;
73132;SDS011;61320;52.008;4.530;2022-10-16T15:43:05;4.96;;;3.52;;
73132;SDS011;61320;52.008;4.530;2022-10-16T15:45:31;4.92;;;3.51;;
73132;SDS011;61320;52.008;4.530;2022-10-16T15:47:56;4.45;;;3.22;;
73132;SDS011;61320;52.008;4.530;2022-10-16T15:50:22;4.47;;;3.26;;
73132;SDS011;61320;52.008;4.530;2022-10-16T15:52:48;4.60;;;3.44;;
73132;SDS011;61320;52.008;4.530;2022-10-16T15:55:15;4.93;;;3.77;;
73132;SDS011;61320;52.008;4.530;2022-10-16T15:57:42;4.70;;;3.66;;
73132;SDS011;61320;52.008;4.530;2022-10-16T16:00:09;4.01;;;3.26;;
73132;SDS011;61320;52.008;4.530;2022-10-16T16:02:37;4.68;;;3.85;;
73132;SDS011;61320;52.008;4.530;2022-10-16T16:05:03;4.73;;;3.86;;
73132;SDS011;61320;52.008;4.530;2022-10-16T16:07:32;4.40;;;3.67;;
73132;SDS011;61320;52.008;4.530;2022-10-16T16:09:59;4.07;;;3.46;;
73132;SDS011;61320;52.008;4.530;2022-10-16T16:12:25;4.09;;;3.55;;
73132;SDS011;61320;52.008;4.530;2022-10-16T16:14:50;5.11;;;4.49;;
73132;SDS011;61320;52.008;4.530;2022-10-16T16:17:16;5.16;;;4.68;;
73132;SDS011;61320;52.008;4.530;2022-10-16T16:19:42;4.75;;;4.34;;
73132;SDS011;61320;52.008;4.530;2022-10-16T16:22:07;4.30;;;3.96;;
73132;SDS011;61320;52.008;4.530;2022-10-16T16:24:33;4.61;;;4.16;;
73132;SDS011;61320;52.008;4.530;2022-10-16T16:26:58;4.03;;;3.52;;
73132;SDS011;61320;52.008;4.530;2022-10-16T16:29:27;4.09;;;3.58;;
73132;SDS011;61320;52.008;4.530;2022-10-16T16:31:52;3.91;;;3.42;;
73132;SDS011;61320;52.008;4.530;2022-10-16T16:34:25;4.41;;;3.74;;
73132;SDS011;61320;52.008;4.530;2022-10-16T16:36:56;4.80;;;3.98;;
73132;SDS011;61320;52.008;4.530;2022-10-16T16:39:22;4.69;;;4.05;;
73132;SDS011;61320;52.008;4.530;2022-10-16T16:41:51;4.83;;;4.28;;
73132;SDS011;61320;52.008;4.530;2022-10-16T16:44:17;5.26;;;4.65;;
73132;SDS011;61320;52.008;4.530;2022-10-16T16:46:43;5.04;;;4.49;;
73132;SDS011;61320;52.008;4.530;2022-10-16T16:49:13;5.16;;;4.74;;
73132;SDS011;61320;52.008;4.530;2022-10-16T16:51:40;5.21;;;4.81;;
73132;SDS011;61320;52.008;4.530;2022-10-16T16:54:09;5.99;;;5.62;;
73132;SDS011;61320;52.008;4.530;2022-10-16T16:56:36;6.25;;;5.96;;
73132;SDS011;61320;52.008;4.530;2022-10-16T16:59:02;5.30;;;5.13;;
73132;SDS011;61320;52.008;4.530;2022-10-16T17:01:28;5.23;;;5.01;;
73132;SDS011;61320;52.008;4.530;2022-10-16T17:03:55;4.61;;;4.43;;